Time;durP1;ratioP1;P1;durP2;ratioP2;P2;SDS_P1;SDS_P2;PMS_P1;PMS_P2;Temp;Humidity;BMP_temperature;BMP_pressure;BME280_temperature;BME280_humidity;BME280_pressure;Samples;Min_cycle;Max_cycle;Signal;HPM_P1;HPM_P2
2021/03/12 05:37:33;;;;;;;;;;;;;;;-6.95;57.11;100702.11;1705231;82;20212;-35
2021/03/12 05:40:04;;;;;;;;;;;;;;;-6.89;56.54;100710.20;1690369;83;20231;-41
2021/03/12 05:42:35;;;;;;;;;;;;;;;-6.87;56.69;100706.49;1680277;84;20141;-35
2021/03/12 05:45:04;;;;;;;;;;;;;;;-6.80;56.49;100690.52;1677418;83;20171;-34
2021/03/12 05:47:33;;;;;;;;;;;;;;;-6.72;56.29;100703.45;1681181;83;20502;-35
2021/03/12 05:50:03;;;;;;;;;;;;;;;-6.65;56.25;100721.33;1628267;84;20167;-34
2021/03/12 05:52:31;;;;;;;;;;;;;;;-6.59;56.25;100718.36;1664968;84;20534;-40
2021/03/12 05:55:03;;;;;;;;;;;;;;;-6.56;55.35;100704.56;1662847;83;20178;-34
2021/03/12 05:57:33;;;;;;;;;;;;;;;-6.56;55.48;100716.91;1652557;85;20566;-34
2021/03/12 06:00:01;;;;;;;;;;;;;;;-6.49;55.95;100719.55;1666180;85;20478;-40
2021/03/12 06:02:30;;;;;;;;;;;;;;;-6.45;55.98;100715.16;1638821;84;20304;-41
2021/03/12 06:04:58;;;;;;;;;;;;;;;-6.40;55.49;100700.23;1677593;83;20200;-40
2021/03/12 06:07:27;;;;;;;;;;;;;;;-6.38;55.25;100699.94;1657948;83;20524;-40
2021/03/12 06:09:55;;;;;;;;;;;;;;;-6.35;55.25;100695.98;1663065;83;20171;-42
2021/03/12 06:12:23;;;;;;;;;;;;;;;-6.36;54.67;100703.52;1649362;82;20305;-41
2021/03/12 06:14:55;;;;;;;;;;;;;;;-6.34;54.98;100701.56;1658479;83;20170;-40
2021/03/12 06:17:47;;;;;;;;;;;;;;;-6.29;55.01;100707.00;1661113;83;20600;-39
2021/03/12 06:20:19;;;;;;;;;;;;;;;-6.23;54.65;100695.59;1664365;83;20215;-40
2021/03/12 06:22:56;;;;;;;;;;;;;;;-6.14;54.30;100701.76;1660475;83;20476;-41
2021/03/12 06:25:26;;;;;;;;;;;;;;;-6.08;53.99;100712.78;1660037;85;20568;-40
2021/03/12 06:28:16;;;;;;;;;;;;;;;-6.05;53.37;100702.41;1653520;82;20264;-36
2021/03/12 06:31:33;;;;;;;;;;;;;;;-6.02;53.66;100714.11;1649530;83;20199;-40
2021/03/12 06:35:03;;;;;;;;;;;;;;;-5.95;53.16;100710.33;1664517;82;20190;-36
2021/03/12 06:38:21;;;;;;;;;;;;;;;-5.91;53.45;100706.81;1654049;83;20575;-40
2021/03/12 06:41:43;;;;;;;;;;;;;;;-5.83;53.03;100700.98;1661329;84;20457;-37
2021/03/12 06:44:43;;;;;;;;;;;;;;;-5.73;52.61;100712.34;1661252;84;20230;-36
2021/03/12 06:47:35;;;;;;;;;;;;;;;-5.64;52.68;100704.44;1657862;84;20199;-35
2021/03/12 06:50:09;;;;;;;;;;;;;;;-5.56;52.33;100705.88;1656427;83;20220;-40
2021/03/12 06:53:20;;;;;;;;;;;;;;;-5.45;51.92;100699.88;1663053;83;20204;-41
2021/03/12 06:55:53;;;;;;;;;;;;;;;-5.37;51.77;100728.45;1624000;85;20220;-37
2021/03/12 06:58:28;;;;;;;;;;;;;;;-5.29;51.48;100724.76;1622466;86;20269;-41
2021/03/12 07:01:21;;;;;;;;;;;;;;;-5.19;50.59;100720.80;1805449;77;20448;-39
2021/03/12 07:04:11;;;;;;;;;;;;;;;-5.15;50.16;100727.01;1809793;77;20381;-35
2021/03/12 07:06:50;;;;;;;;;;;;;;;-5.19;49.89;100733.55;1780933;77;20178;-40
2021/03/12 07:09:20;;;;;;;;;;;;;;;-5.09;50.23;100735.09;1818901;77;20196;-41
2021/03/12 07:11:54;;;;;;;;;;;;;;;-4.95;49.04;100739.84;1819975;77;20528;-34
2021/03/12 07:14:41;;;;;;;;;;;;;;;-4.86;48.51;100723.50;1823097;77;20675;-41
2021/03/12 07:17:11;;;;;;;;;;;;;;;-4.67;48.06;100723.47;1805423;77;20176;-33
2021/03/12 07:19:39;;;;;;;;;;;;;;;-4.61;47.56;100700.89;1817323;77;20612;-35
2021/03/12 07:22:07;;;;;;;;;;;;;;;-4.62;47.75;100704.23;1810086;77;20188;-34
2021/03/12 07:24:38;;;;;;;;;;;;;;;-4.62;46.76;100701.68;1816124;77;20157;-35
2021/03/12 07:27:30;;;;;;;;;;;;;;;-4.62;45.81;100705.12;1818883;77;20454;-35
2021/03/12 07:43:47;;;;;;;;;;;;;;;-4.48;46.30;100711.13;1821097;77;20219;-41
2021/03/12 07:51:54;;;;;;;;;;;;;;;-4.12;46.94;100711.77;1814135;77;20925;-36
2021/03/12 07:55:11;;;;;;;;;;;;;;;-3.80;47.18;100714.73;1820858;77;20161;-40
2021/03/12 07:57:40;;;;;;;;;;;;;;;-3.53;46.65;100695.53;1785371;77;20180;-35
2021/03/12 08:00:19;;;;;;;;;;;;;;;-3.35;46.15;100690.66;1820828;77;20306;-35
2021/03/12 08:02:56;;;;;;;;;;;;;;;-3.31;46.18;100686.20;1807910;77;20199;-40
2021/03/12 08:05:42;;;;;;;;;;;;;;;-3.26;45.75;100706.56;1810270;77;20170;-36
2021/03/12 08:08:38;;;;;;;;;;;;;;;-3.23;45.75;100699.97;1784782;77;20195;-36
2021/03/12 08:11:24;;;;;;;;;;;;;;;-3.24;46.43;100700.77;1798986;77;20274;-35
2021/03/12 08:14:10;;;;;;;;;;;;;;;-3.19;45.90;100695.02;1808110;77;20531;-40
2021/03/12 08:17:03;;;;;;;;;;;;;;;-3.15;45.12;100693.14;1815430;77;20524;-40
2021/03/12 08:19:40;;;;;;;;;;;;;;;-3.21;45.42;100709.89;1799785;77;20196;-35
2021/03/12 08:22:29;;;;;;;;;;;;;;;-3.15;45.93;100714.91;1798283;78;20595;-35
2021/03/12 08:24:58;;;;;;;;;;;;;;;-3.00;46.58;100717.12;1793469;78;20555;-41
2021/03/12 08:27:49;;;;;;;;;;;;;;;-2.74;47.13;100708.03;1798981;77;20866;-40
2021/03/12 08:30:28;;;;;;;;;;;;;;;-2.56;45.80;100674.05;1806651;78;20555;-35
2021/03/12 08:32:57;;;;;;;;;;;;;;;-2.59;44.98;100684.13;1803191;78;20876;-35
2021/03/12 08:35:40;;;;;;;;;;;;;;;-2.60;45.05;100654.19;1800986;78;20435;-41
2021/03/12 08:38:29;;;;;;;;;;;;;;;-2.59;45.21;100678.61;1812411;78;20212;-40
2021/03/12 08:41:19;;;;;;;;;;;;;;;-2.51;45.48;100665.83;1813290;78;20279;-40
2021/03/12 08:44:05;;;;;;;;;;;;;;;-2.40;45.15;100670.30;1809111;77;20512;-40
2021/03/12 08:46:51;;;;;;;;;;;;;;;-2.42;46.63;100665.49;1768245;78;20264;-41
2021/03/12 08:49:19;;;;;;;;;;;;;;;-2.39;45.93;100658.37;1810930;78;20153;-41
2021/03/12 08:51:47;;;;;;;;;;;;;;;-2.34;46.26;100656.55;1783534;78;20192;-36
2021/03/12 08:54:22;;;;;;;;;;;;;;;-2.23;45.93;100656.77;1816388;78;20178;-35
2021/03/12 08:56:51;;;;;;;;;;;;;;;-2.22;45.09;100626.48;1806264;78;20169;-38
2021/03/12 08:59:27;;;;;;;;;;;;;;;-2.29;45.72;100628.22;1788015;78;20143;-35
2021/03/12 09:02:06;;;;;;;;;;;;;;;-2.30;45.39;100640.56;1813358;76;20201;-41
2021/03/12 09:04:42;;;;;;;;;;;;;;;-2.27;45.36;100633.02;1816713;77;20622;-41
2021/03/12 09:07:15;;;;;;;;;;;;;;;-2.21;45.61;100624.80;1810405;76;20268;-35
2021/03/12 09:09:53;;;;;;;;;;;;;;;-2.11;45.34;100612.11;1746458;81;20185;-35
2021/03/12 09:12:34;;;;;;;;;;;;;;;-2.02;45.41;100617.76;1777721;78;20474;-35
2021/03/12 09:15:06;;;;;;;;;;;;;;;-1.99;46.15;100599.95;1735627;81;21009;-35
2021/03/12 09:17:37;;;;;;;;;;;;;;;-1.86;46.49;100599.81;1707561;81;20747;-35
2021/03/12 09:20:08;;;;;;;;;;;;;;;-1.74;45.86;100599.22;1734558;81;20152;-36
2021/03/12 09:22:59;;;;;;;;;;;;;;;-1.68;45.40;100604.69;1737721;81;20457;-36
2021/03/12 09:25:36;;;;;;;;;;;;;;;-1.62;45.18;100584.89;1742357;81;20599;-41
2021/03/12 09:28:14;;;;;;;;;;;;;;;-1.58;45.70;100576.93;1734809;81;20193;-40
2021/03/12 09:35:48;;;;;;;;;;;;;;;-1.65;45.01;100574.44;1741615;81;20189;-35
2021/03/12 09:39:18;;;;;;;;;;;;;;;-1.78;45.26;100566.50;1724954;81;20213;-35
2021/03/12 09:42:31;;;;;;;;;;;;;;;-1.86;46.36;100557.49;1738424;81;20169;-39
2021/03/12 09:46:31;;;;;;;;;;;;;;;-1.78;46.57;100548.55;1740217;81;20438;-40
2021/03/12 09:49:22;;;;;;;;;;;;;;;-1.64;46.69;100528.33;1717390;82;20477;-41
2021/03/12 09:51:56;;;;;;;;;;;;;;;-1.58;47.26;100526.89;1710757;81;20183;-35
2021/03/12 09:55:02;;;;;;;;;;;;;;;-1.53;46.19;100522.88;1736789;81;20179;-36
2021/03/12 09:58:19;;;;;;;;;;;;;;;-1.55;46.66;100509.10;1711578;81;20445;-34
2021/03/12 10:00:48;;;;;;;;;;;;;;;-1.53;46.49;100500.66;1737627;81;20488;-35
2021/03/12 10:03:23;;;;;;;;;;;;;;;-1.48;45.79;100503.07;1735881;81;20192;-35
2021/03/12 10:06:07;;;;;;;;;;;;;;;-1.49;45.27;100491.45;1742827;81;20586;-36
2021/03/12 10:09:24;;;;;;;;;;;;;;;-1.48;46.11;100477.81;1733348;81;20215;-35
2021/03/12 10:17:00;;;;;;;;;;;;;;;-1.28;46.21;100447.59;1727577;81;20852;-35
2021/03/12 10:20:54;;;;;;;;;;;;;;;-1.29;46.69;100436.84;1727524;81;20169;-36
2021/03/12 10:24:42;;;;;;;;;;;;;;;-1.27;45.59;100410.87;1729245;81;20197;-35
2021/03/12 10:27:47;;;;;;;;;;;;;;;-1.29;46.26;100405.16;1727700;81;20182;-35
2021/03/12 10:30:26;;;;;;;;;;;;;;;-1.30;45.78;100378.61;1730440;81;20760;-35
2021/03/12 10:33:29;;;;;;;;;;;;;;;-1.39;46.38;100379.06;1731348;81;20182;-35
2021/03/12 10:36:12;;;;;;;;;;;;;;;-1.41;46.15;100369.51;1729672;81;20280;-35
2021/03/12 10:38:43;;;;;;;;;;;;;;;-1.43;47.09;100347.62;1724145;81;20227;-40
2021/03/12 10:41:22;;;;;;;;;;;;;;;-1.37;47.01;100330.36;1731281;81;20180;-40
2021/03/12 10:43:58;;;;;;;;;;;;;;;-1.39;46.87;100334.55;1730181;81;20391;-41
2021/03/12 10:46:25;;;;;;;;;;;;;;;-1.35;47.64;100327.05;1726356;81;20185;-41
2021/03/12 10:48:53;;;;;;;;;;;;;;;-1.26;47.19;100329.19;1730200;82;20489;-40
2021/03/12 10:51:21;;;;;;;;;;;;;;;-1.20;47.52;100326.03;1728413;81;20162;-41
2021/03/12 10:53:54;;;;;;;;;;;;;;;-1.13;47.18;100323.81;1728163;81;20206;-41
2021/03/12 10:56:23;;;;;;;;;;;;;;;-1.10;46.98;100314.98;1726860;81;20182;-35
2021/03/12 10:58:52;;;;;;;;;;;;;;;-1.08;46.90;100313.36;1729472;81;20744;-36
2021/03/12 11:01:30;;;;;;;;;;;;;;;-1.10;46.94;100330.39;1731441;82;20625;-35
2021/03/12 11:03:59;;;;;;;;;;;;;;;-1.07;46.73;100306.13;1731320;82;20206;-36
2021/03/12 11:06:30;;;;;;;;;;;;;;;-1.03;47.28;100287.02;1723778;81;20218;-40
2021/03/12 11:08:58;;;;;;;;;;;;;;;-1.01;46.23;100320.94;1690725;83;20181;-42
2021/03/12 11:11:45;;;;;;;;;;;;;;;-0.99;45.85;100331.27;1663850;84;20191;-38
2021/03/12 11:14:19;;;;;;;;;;;;;;;-0.97;46.75;100329.68;1682353;84;20194;-40
2021/03/12 11:16:48;;;;;;;;;;;;;;;-0.99;46.93;100341.14;1731835;81;20856;-36
2021/03/12 11:19:16;;;;;;;;;;;;;;;-0.93;46.70;100331.56;1734771;81;20170;-41
2021/03/12 11:21:44;;;;;;;;;;;;;;;-0.89;46.07;100325.77;1732523;81;20181;-40
2021/03/12 11:24:12;;;;;;;;;;;;;;;-0.89;45.53;100324.07;1731027;81;20211;-35
2021/03/12 11:26:42;;;;;;;;;;;;;;;-0.88;45.80;100327.52;1729698;81;20526;-40
2021/03/12 11:29:14;;;;;;;;;;;;;;;-0.87;46.68;100336.60;1733169;82;20221;-35
2021/03/12 11:31:59;;;;;;;;;;;;;;;-0.82;45.68;100340.23;1733727;81;20185;-41
2021/03/12 11:34:29;;;;;;;;;;;;;;;-0.84;45.59;100334.56;1729934;81;20185;-40
2021/03/12 11:36:59;;;;;;;;;;;;;;;-0.87;45.88;100327.98;1734601;81;20182;-35
2021/03/12 11:39:28;;;;;;;;;;;;;;;-0.87;46.08;100339.17;1734607;81;20401;-40
2021/03/12 11:41:55;;;;;;;;;;;;;;;-0.83;46.15;100332.06;1734831;81;20181;-40
2021/03/12 11:44:23;;;;;;;;;;;;;;;-0.81;45.73;100334.72;1736826;81;20234;-40
2021/03/12 11:46:50;;;;;;;;;;;;;;;-0.91;45.33;100342.40;1732760;81;20174;-36
2021/03/12 11:49:19;;;;;;;;;;;;;;;-0.99;45.47;100339.86;1734205;82;20180;-34
2021/03/12 11:51:46;;;;;;;;;;;;;;;-1.05;46.22;100328.02;1728645;81;20549;-35
2021/03/12 11:54:14;;;;;;;;;;;;;;;-1.08;46.46;100347.15;1733205;82;20201;-40
2021/03/12 11:56:44;;;;;;;;;;;;;;;-1.09;46.83;100350.13;1730785;81;20178;-35
2021/03/12 11:59:11;;;;;;;;;;;;;;;-1.04;46.66;100355.48;1728926;81;20224;-42
2021/03/12 12:01:41;;;;;;;;;;;;;;;-0.99;46.91;100346.28;1733430;81;20154;-35
2021/03/12 12:04:09;;;;;;;;;;;;;;;-0.93;45.78;100359.44;1732501;81;20212;-38
2021/03/12 12:06:39;;;;;;;;;;;;;;;-0.93;45.71;100358.16;1733804;81;20376;-41
2021/03/12 12:09:13;;;;;;;;;;;;;;;-0.96;46.30;100350.70;1730937;81;20884;-41
2021/03/12 12:11:40;;;;;;;;;;;;;;;-0.94;46.16;100359.34;1721691;81;20622;-36
2021/03/12 12:14:08;;;;;;;;;;;;;;;-0.93;45.51;100354.67;1730356;81;20174;-35
2021/03/12 12:16:35;;;;;;;;;;;;;;;-0.95;46.00;100344.34;1734687;81;20479;-41
2021/03/12 12:19:08;;;;;;;;;;;;;;;-0.95;45.77;100362.73;1736424;81;20217;-40
2021/03/12 12:21:32;;;;;;;;;;;;;;;-0.93;45.85;100368.80;1737298;81;20173;-40
2021/03/12 12:24:00;;;;;;;;;;;;;;;-0.88;46.06;100362.20;1734638;81;20619;-41
2021/03/12 12:26:28;;;;;;;;;;;;;;;-0.85;45.29;100344.38;1740561;81;20202;-41
2021/03/12 12:28:56;;;;;;;;;;;;;;;-0.83;45.57;100344.91;1736830;81;20190;-36
2021/03/12 12:31:24;;;;;;;;;;;;;;;-0.79;45.41;100357.50;1737812;81;20560;-40
2021/03/12 12:33:52;;;;;;;;;;;;;;;-0.75;45.62;100355.93;1741308;81;21048;-41
2021/03/12 12:36:19;;;;;;;;;;;;;;;-0.72;44.78;100344.12;1738943;81;20205;-41
2021/03/12 12:38:50;;;;;;;;;;;;;;;-0.68;44.99;100352.86;1734760;81;20484;-36
2021/03/12 12:41:18;;;;;;;;;;;;;;;-0.64;45.54;100344.45;1735254;81;20591;-35
2021/03/12 12:43:47;;;;;;;;;;;;;;;-0.59;45.22;100334.86;1741311;81;20630;-40
2021/03/12 12:46:15;;;;;;;;;;;;;;;-0.57;45.00;100351.25;1742044;82;20280;-40
2021/03/12 12:48:44;;;;;;;;;;;;;;;-0.53;44.88;100345.82;1735378;81;20217;-41
2021/03/12 12:51:18;;;;;;;;;;;;;;;-0.51;43.92;100323.66;1738760;82;20174;-35
2021/03/12 12:53:46;;;;;;;;;;;;;;;-0.48;43.73;100328.05;1736696;81;20724;-40
2021/03/12 12:56:15;;;;;;;;;;;;;;;-0.46;43.80;100318.32;1740664;81;20177;-39
2021/03/12 12:58:45;;;;;;;;;;;;;;;-0.42;43.85;100317.63;1733347;82;20176;-34
2021/03/12 13:01:12;;;;;;;;;;;;;;;-0.35;44.36;100314.91;1737261;82;20535;-36
2021/03/12 13:03:41;;;;;;;;;;;;;;;-0.28;44.27;100304.11;1743858;82;20189;-36
2021/03/12 13:06:08;;;;;;;;;;;;;;;-0.20;43.95;100305.71;1734636;82;20816;-35
2021/03/12 13:08:36;;;;;;;;;;;;;;;-0.17;43.53;100279.73;1735893;82;20225;-35
2021/03/12 13:11:04;;;;;;;;;;;;;;;-0.15;43.05;100285.81;1744484;82;20192;-36
2021/03/12 13:13:31;;;;;;;;;;;;;;;-0.14;43.15;100272.13;1744200;82;20578;-40
2021/03/12 13:15:59;;;;;;;;;;;;;;;-0.14;43.44;100282.83;1743118;81;20213;-35
2021/03/12 13:18:30;;;;;;;;;;;;;;;-0.15;43.56;100261.78;1737963;82;20206;-40
2021/03/12 13:20:59;;;;;;;;;;;;;;;-0.15;43.33;100262.66;1734137;82;20186;-35
2021/03/12 13:23:27;;;;;;;;;;;;;;;-0.13;42.93;100255.88;1737311;82;20177;-37
2021/03/12 13:25:55;;;;;;;;;;;;;;;-0.11;42.93;100250.82;1725446;81;20466;-41
2021/03/12 13:28:22;;;;;;;;;;;;;;;-0.08;42.58;100254.79;1729655;81;20193;-36
2021/03/12 13:30:50;;;;;;;;;;;;;;;-0.05;43.04;100251.08;1736613;82;20625;-35
2021/03/12 13:33:18;;;;;;;;;;;;;;;0.00;43.52;100252.15;1743666;82;20158;-34
2021/03/12 13:35:48;;;;;;;;;;;;;;;0.03;42.69;100231.68;1713247;82;20154;-35
2021/03/12 13:38:17;;;;;;;;;;;;;;;0.04;42.79;100241.56;1729499;82;20204;-36
2021/03/12 13:40:45;;;;;;;;;;;;;;;0.01;42.43;100242.33;1735401;81;20166;-40
2021/03/12 13:43:12;;;;;;;;;;;;;;;0.01;43.38;100241.04;1726363;82;20207;-37
2021/03/12 13:45:40;;;;;;;;;;;;;;;0.01;43.37;100226.89;1728777;82;20205;-35
2021/03/12 13:48:09;;;;;;;;;;;;;;;0.01;42.65;100213.16;1728159;82;20150;-36
2021/03/12 13:50:38;;;;;;;;;;;;;;;-0.02;42.59;100217.34;1747338;82;20541;-36
2021/03/12 13:53:06;;;;;;;;;;;;;;;-0.06;42.59;100221.91;1733993;82;20168;-35
2021/03/12 13:55:33;;;;;;;;;;;;;;;-0.07;43.07;100177.69;1748220;81;20484;-35
2021/03/12 13:58:01;;;;;;;;;;;;;;;-0.09;43.36;100209.31;1719883;82;20180;-39
2021/03/12 14:00:28;;;;;;;;;;;;;;;-0.13;43.15;100173.98;1723831;82;20453;-37
2021/03/12 14:02:56;;;;;;;;;;;;;;;-0.15;43.98;100194.92;1731211;81;20160;-37
2021/03/12 14:05:24;;;;;;;;;;;;;;;-0.19;44.12;100142.88;1735573;82;20508;-41
